Time;durP1;ratioP1;P1;durP2;ratioP2;P2;SDS_P1;SDS_P2;PMS_P1;PMS_P2;Temp;Humidity;BMP_temperature;BMP_pressure;BME280_temperature;BME280_humidity;BME280_pressure;Samples;Min_cycle;Max_cycle;Signal;HPM_P1;HPM_P2
2022/12/12 00:00:50;;;;;;;26.00;14.38;;;2.30;99.90;;;;;;5010620;28;20073;-71
2022/12/12 00:03:55;;;;;;;23.05;14.10;;;2.30;99.90;;;;;;5010349;28;20045;-70
2022/12/12 00:06:59;;;;;;;64.15;31.08;;;2.30;99.90;;;;;;5010352;28;20045;-70
2022/12/12 00:10:03;;;;;;;107.80;49.65;;;2.20;99.90;;;;;;5010261;28;20053;-70
2022/12/12 00:13:08;;;;;;;64.32;30.67;;;2.10;99.90;;;;;;5010219;28;20044;-70
2022/12/12 00:16:15;;;;;;;42.83;23.25;;;2.00;99.90;;;;;;5009922;28;20044;-70
2022/12/12 00:19:19;;;;;;;29.58;16.85;;;2.00;99.90;;;;;;5010111;28;20056;-70
2022/12/12 00:22:24;;;;;;;21.33;14.25;;;1.90;99.90;;;;;;5010033;28;20053;-70
2022/12/12 00:25:29;;;;;;;23.10;13.95;;;1.80;99.90;;;;;;5009994;28;20045;-70
2022/12/12 00:28:34;;;;;;;25.95;13.60;;;1.80;99.90;;;;;;5010302;28;20048;-71
2022/12/12 00:31:38;;;;;;;22.70;12.45;;;1.70;99.90;;;;;;5010269;28;20069;-71
2022/12/12 00:34:42;;;;;;;20.70;12.35;;;1.70;99.90;;;;;;5010213;28;20057;-70
2022/12/12 00:37:46;;;;;;;23.05;13.10;;;1.60;99.90;;;;;;5009658;28;20060;-70
2022/12/12 00:40:58;;;;;;;17.85;10.90;;;1.50;99.90;;;;;;5008500;28;20052;-71
2022/12/12 00:44:03;;;;;;;24.58;14.05;;;1.50;99.90;;;;;;5013124;28;20060;-71
2022/12/12 00:47:07;;;;;;;13.35;8.27;;;1.40;99.90;;;;;;5013408;28;20045;-70
2022/12/12 00:50:10;;;;;;;20.23;10.00;;;1.40;99.90;;;;;;5013480;28;20045;-70
2022/12/12 00:53:16;;;;;;;16.70;9.35;;;1.40;99.90;;;;;;5013123;28;20056;-70
2022/12/12 00:56:21;;;;;;;12.55;7.72;;;1.30;99.90;;;;;;5013417;28;20061;-70
2022/12/12 00:59:25;;;;;;;12.77;7.35;;;1.20;99.90;;;;;;5013231;28;20049;-70
2022/12/12 01:02:29;;;;;;;18.27;11.18;;;1.10;99.90;;;;;;5013128;28;20046;-70
2022/12/12 01:05:36;;;;;;;12.20;7.07;;;1.10;99.90;;;;;;5012910;28;20049;-70
2022/12/12 01:08:40;;;;;;;10.88;6.07;;;1.20;99.90;;;;;;5013157;28;20049;-70
2022/12/12 01:11:44;;;;;;;49.90;30.23;;;1.20;99.90;;;;;;5013009;28;20495;-70
2022/12/12 01:14:48;;;;;;;12.23;7.47;;;1.10;99.90;;;;;;5012572;28;20425;-70
2022/12/12 01:17:52;;;;;;;13.05;7.47;;;1.00;99.90;;;;;;5012738;28;20500;-70
2022/12/12 01:20:57;;;;;;;13.07;7.72;;;1.00;99.90;;;;;;5012910;28;20044;-70
2022/12/12 01:24:00;;;;;;;21.60;9.95;;;1.00;99.90;;;;;;5012734;28;20049;-70
2022/12/12 01:27:05;;;;;;;20.25;10.23;;;1.00;99.90;;;;;;5012593;28;20056;-70
2022/12/12 01:30:13;;;;;;;20.63;10.27;;;1.10;99.90;;;;;;5012781;28;20040;-69
2022/12/12 01:33:18;;;;;;;21.15;10.23;;;1.10;99.90;;;;;;5012375;28;20117;-69
2022/12/12 01:36:23;;;;;;;20.50;10.93;;;1.10;99.90;;;;;;5012226;28;20037;-69
2022/12/12 01:39:27;;;;;;;20.42;11.10;;;1.10;99.90;;;;;;5012528;28;20057;-69
2022/12/12 01:42:32;;;;;;;27.17;11.93;;;1.00;99.90;;;;;;5011610;28;20040;-69
2022/12/12 01:46:22;;;;;;;28.40;12.48;;;1.10;99.90;;;;;;5012143;28;20492;-69
2022/12/12 01:49:27;;;;;;;28.42;12.85;;;1.20;99.90;;;;;;5012131;28;20048;-69
2022/12/12 01:52:40;;;;;;;31.35;13.65;;;1.30;99.90;;;;;;5011930;28;20508;-69
2022/12/12 01:55:45;;;;;;;31.75;13.75;;;1.30;99.90;;;;;;5012025;28;20052;-69
2022/12/12 01:58:53;;;;;;;29.23;14.73;;;1.40;99.90;;;;;;5011633;28;20053;-69
2022/12/12 02:01:57;;;;;;;33.97;15.90;;;1.50;99.90;;;;;;5022548;28;20507;-69
2022/12/12 02:05:10;;;;;;;31.52;14.88;;;1.60;99.90;;;;;;5011400;28;20053;-69
2022/12/12 02:08:16;;;;;;;38.75;17.02;;;1.70;99.90;;;;;;5011619;28;20057;-69
2022/12/12 02:11:20;;;;;;;38.08;18.90;;;1.70;99.90;;;;;;5011625;28;20037;-69
2022/12/12 02:14:38;;;;;;;37.15;17.15;;;1.80;99.90;;;;;;5011493;28;20060;-70
2022/12/12 02:18:10;;;;;;;40.00;17.98;;;1.80;99.90;;;;;;5011484;28;20500;-70
2022/12/12 02:21:16;;;;;;;40.35;17.38;;;1.70;99.90;;;;;;5011769;28;20049;-70
2022/12/12 02:24:39;;;;;;;36.15;16.77;;;1.70;99.90;;;;;;5011162;28;20495;-70
2022/12/12 02:28:08;;;;;;;37.72;16.88;;;1.70;99.90;;;;;;5011511;28;20052;-70
2022/12/12 02:31:53;;;;;;;38.05;16.15;;;1.70;99.90;;;;;;5011523;28;20048;-70
2022/12/12 02:35:16;;;;;;;118.72;23.00;;;1.70;99.90;;;;;;5000998;28;20496;-70
2022/12/12 02:38:34;;;;;;;136.20;21.65;;;1.80;99.90;;;;;;5011859;28;20057;-70
2022/12/12 02:42:00;;;;;;;53.10;21.58;;;1.80;99.90;;;;;;5011449;28;20053;-70
2022/12/12 02:45:48;;;;;;;197.23;27.83;;;1.90;99.90;;;;;;5011166;28;20052;-70
2022/12/12 02:48:52;;;;;;;59.50;20.77;;;2.00;99.90;;;;;;5011239;28;20053;-70
2022/12/12 02:51:58;;;;;;;39.92;17.85;;;2.00;99.90;;;;;;5010943;28;20049;-70
2022/12/12 02:55:03;;;;;;;37.45;15.65;;;2.00;99.90;;;;;;5010986;28;20053;-70
2022/12/12 02:58:08;;;;;;;35.25;15.90;;;2.10;99.90;;;;;;5011079;28;20057;-70
2022/12/12 03:01:36;;;;;;;32.90;15.90;;;2.10;99.90;;;;;;5011123;28;20045;-70
2022/12/12 03:08:41;;;;;;;27.33;14.32;;;2.00;99.90;;;;;;5010226;28;20053;-70
2022/12/12 03:11:51;;;;;;;32.53;15.20;;;2.00;99.90;;;;;;5010765;28;20048;-70
2022/12/12 03:15:04;;;;;;;31.20;14.80;;;1.90;99.90;;;;;;5010418;28;20041;-70
2022/12/12 03:18:25;;;;;;;30.40;15.10;;;1.90;99.90;;;;;;5010615;28;20037;-70
2022/12/12 03:21:35;;;;;;;38.17;17.00;;;2.00;99.90;;;;;;5010651;28;20045;-70
2022/12/12 03:25:04;;;;;;;36.53;17.52;;;2.00;99.90;;;;;;5010373;28;20423;-70
2022/12/12 03:28:22;;;;;;;29.98;14.80;;;1.90;99.90;;;;;;5010354;28;20404;-70
2022/12/12 03:31:31;;;;;;;30.27;14.88;;;1.80;99.90;;;;;;5010603;28;20052;-70
2022/12/12 03:34:56;;;;;;;28.90;13.63;;;1.70;99.90;;;;;;5010466;28;20053;-70
2022/12/12 03:38:14;;;;;;;27.80;12.93;;;1.70;99.90;;;;;;5010476;28;20053;-70
2022/12/12 03:41:21;;;;;;;28.88;13.75;;;1.70;99.90;;;;;;5009047;28;20396;-69
2022/12/12 03:44:31;;;;;;;26.38;13.98;;;1.70;99.90;;;;;;5010125;28;20057;-70
2022/12/12 03:47:49;;;;;;;26.95;14.73;;;1.70;99.90;;;;;;5010648;28;20053;-70
2022/12/12 03:51:09;;;;;;;23.33;12.02;;;1.60;99.90;;;;;;5010370;28;20513;-70
2022/12/12 03:54:32;;;;;;;25.02;12.63;;;1.60;99.90;;;;;;5010092;28;20523;-70
2022/12/12 03:57:51;;;;;;;25.10;12.70;;;1.50;99.90;;;;;;5010088;28;20072;-70
2022/12/12 04:00:57;;;;;;;25.05;12.88;;;1.50;99.90;;;;;;5010569;28;20045;-70
2022/12/12 04:04:13;;;;;;;24.38;13.93;;;1.40;99.90;;;;;;5010059;28;20057;-70
2022/12/12 04:07:40;;;;;;;21.75;13.35;;;1.40;99.90;;;;;;5010181;28;20053;-70
2022/12/12 04:14:41;;;;;;;23.85;15.30;;;1.40;99.90;;;;;;5010102;28;20041;-70
2022/12/12 04:18:04;;;;;;;21.25;14.07;;;1.30;99.90;;;;;;5011677;28;20045;-70
2022/12/12 04:24:42;;;;;;;78.57;15.40;;;1.20;99.90;;;;;;5013095;28;20504;-70
2022/12/12 04:27:50;;;;;;;181.70;20.02;;;1.20;99.90;;;;;;5013496;28;20045;-70
2022/12/12 04:30:59;;;;;;;70.30;14.57;;;1.20;99.90;;;;;;5013183;28;20045;-70
2022/12/12 04:34:14;;;;;;;34.25;13.75;;;1.20;99.90;;;;;;5013264;28;20060;-70
2022/12/12 04:37:29;;;;;;;70.75;16.10;;;1.30;99.90;;;;;;5024053;28;20048;-70
2022/12/12 04:40:41;;;;;;;36.95;14.55;;;1.40;99.90;;;;;;5013258;28;20045;-70
2022/12/12 04:43:47;;;;;;;;;;;1.40;99.90;;;;;;5013790;28;20295;-70
2022/12/12 04:46:54;;;;;;;36.08;13.20;;;1.50;99.90;;;;;;5013448;28;19917;-70
2022/12/12 04:50:01;;;;;;;44.33;14.05;;;1.50;99.90;;;;;;5013216;28;20041;-70
2022/12/12 04:53:10;;;;;;;34.47;13.85;;;1.50;99.90;;;;;;5013048;28;20076;-70
2022/12/12 04:56:19;;;;;;;23.08;12.82;;;1.60;99.90;;;;;;5013265;28;20037;-70
2022/12/12 04:59:24;;;;;;;52.40;18.52;;;1.70;99.90;;;;;;5013311;28;20045;-70
2022/12/12 05:02:46;;;;;;;115.10;18.27;;;1.80;99.90;;;;;;5013418;28;20492;-70
2022/12/12 05:06:00;;;;;;;32.47;13.98;;;1.90;99.90;;;;;;5012343;28;20069;-70
2022/12/12 05:09:05;;;;;;;33.60;14.73;;;1.90;99.90;;;;;;5013535;28;20052;-70
2022/12/12 05:12:10;;;;;;;31.70;15.10;;;1.80;99.90;;;;;;5013168;28;20069;-70
2022/12/12 05:15:16;;;;;;;32.00;13.93;;;1.80;99.90;;;;;;5012874;28;20393;-70
2022/12/12 05:18:22;;;;;;;29.58;13.77;;;1.90;99.90;;;;;;5012795;28;20487;-70
2022/12/12 05:21:26;;;;;;;31.17;16.10;;;2.00;99.90;;;;;;5012692;28;20057;-70
2022/12/12 05:24:30;;;;;;;33.97;16.15;;;2.00;99.90;;;;;;5012080;28;20049;-70
2022/12/12 05:27:35;;;;;;;32.92;14.68;;;2.00;99.90;;;;;;5012381;28;20053;-70
2022/12/12 05:30:39;;;;;;;31.80;16.95;;;1.90;99.90;;;;;;5010963;28;20048;-70
2022/12/12 05:33:45;;;;;;;35.20;16.95;;;1.90;99.90;;;;;;5011577;28;20045;-70
2022/12/12 05:36:49;;;;;;;33.38;15.85;;;1.90;99.90;;;;;;5012677;28;20041;-70
2022/12/12 05:39:53;;;;;;;29.95;13.90;;;1.90;99.90;;;;;;5012109;28;20060;-70
2022/12/12 05:42:57;;;;;;;33.70;16.40;;;1.80;99.90;;;;;;5012773;28;20057;-70
2022/12/12 05:46:01;;;;;;;34.13;16.25;;;1.80;99.90;;;;;;5011537;28;20052;-70
2022/12/12 05:49:05;;;;;;;34.22;17.95;;;1.80;99.90;;;;;;5012354;28;20049;-70
2022/12/12 05:52:09;;;;;;;33.88;16.23;;;1.90;99.90;;;;;;5012015;28;20129;-70
2022/12/12 05:55:15;;;;;;;31.63;16.20;;;1.90;99.90;;;;;;5012045;28;20508;-70
2022/12/12 05:58:20;;;;;;;30.05;16.00;;;1.90;99.90;;;;;;5012075;28;20049;-70
2022/12/12 06:01:24;;;;;;;34.28;17.52;;;1.90;99.90;;;;;;5011633;28;20052;-70
2022/12/12 06:04:28;;;;;;;34.50;16.40;;;1.90;99.90;;;;;;5011576;28;20424;-70
2022/12/12 06:07:32;;;;;;;42.45;19.52;;;1.90;99.90;;;;;;5012824;28;20072;-70
2022/12/12 06:10:36;;;;;;;41.85;19.83;;;1.80;99.90;;;;;;5012426;28;20393;-70
2022/12/12 06:13:41;;;;;;;48.78;20.85;;;1.60;99.90;;;;;;5012425;28;20056;-70
2022/12/12 06:16:45;;;;;;;59.25;25.33;;;1.60;99.90;;;;;;5012458;28;20491;-70
2022/12/12 06:19:49;;;;;;;56.65;27.20;;;1.60;99.90;;;;;;5012886;28;20061;-71
2022/12/12 06:22:53;;;;;;;44.92;22.77;;;1.60;99.90;;;;;;5012873;28;20057;-70
2022/12/12 06:25:56;;;;;;;42.88;19.77;;;1.80;99.90;;;;;;5013067;28;20064;-70
2022/12/12 06:29:02;;;;;;;38.70;17.88;;;1.90;99.90;;;;;;5011831;28;20052;-70
2022/12/12 06:32:09;;;;;;;40.08;18.02;;;1.80;99.90;;;;;;5011411;28;20045;-70
2022/12/12 06:35:14;;;;;;;41.25;18.30;;;1.90;99.90;;;;;;5011418;28;20045;-70
2022/12/12 06:38:19;;;;;;;50.40;19.98;;;1.90;99.90;;;;;;5011558;28;20056;-70
2022/12/12 06:41:24;;;;;;;42.75;17.73;;;1.90;99.90;;;;;;5010572;28;20037;-70
2022/12/12 06:44:31;;;;;;;42.35;17.70;;;1.90;99.90;;;;;;5011264;28;20390;-70
2022/12/12 06:47:36;;;;;;;320.42;34.90;;;1.90;99.90;;;;;;5011571;28;20056;-70
2022/12/12 06:50:42;;;;;;;50.72;16.83;;;1.90;99.90;;;;;;5011457;28;20049;-70
2022/12/12 06:53:47;;;;;;;38.20;14.93;;;2.00;99.90;;;;;;5010750;28;20048;-70
2022/12/12 06:56:51;;;;;;;215.35;30.63;;;1.90;99.90;;;;;;5021457;28;20045;-70
2022/12/12 06:59:56;;;;;;;42.05;17.90;;;1.80;99.90;;;;;;5011144;28;20045;-70
2022/12/12 07:03:00;;;;;;;40.78;17.40;;;1.80;99.90;;;;;;5010565;28;20037;-70
2022/12/12 07:06:05;;;;;;;37.28;17.75;;;1.80;99.90;;;;;;5025571;28;20044;-70
2022/12/12 07:09:10;;;;;;;46.13;18.02;;;1.70;99.90;;;;;;5029507;28;20044;-71
2022/12/12 07:12:15;;;;;;;44.97;18.90;;;1.60;99.90;;;;;;5017320;28;20057;-70
2022/12/12 07:15:20;;;;;;;51.13;19.33;;;1.50;99.90;;;;;;5026737;28;20068;-70
2022/12/12 07:18:25;;;;;;;100.00;21.25;;;1.40;99.90;;;;;;5029582;28;20416;-70
2022/12/12 07:21:29;;;;;;;105.07;23.25;;;1.50;99.90;;;;;;5019664;28;20044;-70
2022/12/12 07:24:33;;;;;;;69.78;20.50;;;1.60;99.90;;;;;;5029203;28;20041;-70
2022/12/12 07:27:37;;;;;;;68.90;20.08;;;1.70;99.90;;;;;;5024637;28;20618;-70
2022/12/12 07:30:43;;;;;;;45.50;17.73;;;1.80;99.90;;;;;;5021540;28;20044;-70
2022/12/12 07:33:48;;;;;;;45.22;18.45;;;1.90;99.90;;;;;;5024434;28;20045;-70
2022/12/12 07:36:52;;;;;;;35.60;16.63;;;2.10;99.90;;;;;;5025858;28;20040;-70
2022/12/12 07:39:57;;;;;;;36.72;17.50;;;2.20;99.90;;;;;;5026205;28;20040;-70
2022/12/12 07:43:02;;;;;;;55.28;20.05;;;2.20;99.90;;;;;;5026203;28;20484;-70
2022/12/12 07:46:08;;;;;;;101.47;22.30;;;2.40;99.90;;;;;;5022071;28;20068;-70
2022/12/12 07:49:12;;;;;;;56.75;19.00;;;2.50;99.90;;;;;;5027963;28;20060;-70
2022/12/12 07:52:16;;;;;;;60.45;19.98;;;2.70;99.90;;;;;;5038630;28;20049;-70
2022/12/12 07:55:19;;;;;;;83.72;20.98;;;2.90;99.90;;;;;;5029640;28;20048;-71
2022/12/12 07:58:23;;;;;;;31.17;15.18;;;3.00;99.90;;;;;;5028680;28;20487;-70
2022/12/12 08:01:29;;;;;;;104.88;19.15;;;3.20;99.90;;;;;;5025931;28;20388;-71
2022/12/12 08:04:36;;;;;;;48.20;16.95;;;3.30;99.90;;;;;;5027198;28;20399;-70
2022/12/12 08:07:41;;;;;;;376.17;31.88;;;3.50;99.90;;;;;;5032945;28;20040;-71
2022/12/12 08:10:44;;;;;;;33.30;12.48;;;3.40;99.90;;;;;;5033508;28;20049;-70
2022/12/12 08:13:49;;;;;;;320.25;25.90;;;3.40;99.90;;;;;;5032547;28;20040;-70
2022/12/12 08:16:54;;;;;;;128.05;16.00;;;3.30;99.90;;;;;;5022801;28;20479;-70
2022/12/12 08:19:58;;;;;;;170.82;19.08;;;3.30;99.90;;;;;;5028416;28;20759;-70
2022/12/12 08:23:03;;;;;;;316.38;34.08;;;3.30;99.90;;;;;;5034127;28;20077;-70
2022/12/12 08:26:10;;;;;;;71.03;15.65;;;3.30;99.90;;;;;;5033613;28;20053;-70
2022/12/12 08:29:14;;;;;;;39.63;15.15;;;3.40;99.90;;;;;;5029147;28;20056;-70
2022/12/12 08:32:19;;;;;;;82.28;18.40;;;3.50;99.90;;;;;;5029690;28;20427;-70
2022/12/12 08:35:23;;;;;;;45.58;14.73;;;3.90;99.90;;;;;;5029760;28;20088;-70
2022/12/12 08:38:29;;;;;;;39.50;15.18;;;4.00;99.90;;;;;;5031895;28;20048;-70
2022/12/12 08:41:36;;;;;;;131.20;19.20;;;3.90;99.90;;;;;;5031045;28;20044;-70
2022/12/12 08:44:40;;;;;;;25.80;11.95;;;4.30;99.90;;;;;;5031169;28;20049;-70
2022/12/12 08:47:44;;;;;;;24.95;11.57;;;4.20;99.90;;;;;;5025441;28;20036;-70
2022/12/12 08:50:51;;;;;;;560.75;39.92;;;3.90;99.90;;;;;;5032093;28;20494;-70
2022/12/12 08:53:55;;;;;;;71.00;15.20;;;3.50;99.90;;;;;;5031302;28;20036;-70
2022/12/12 08:56:59;;;;;;;101.53;17.83;;;3.40;99.90;;;;;;5031339;28;20036;-70
2022/12/12 09:00:04;;;;;;;340.02;29.05;;;3.20;99.90;;;;;;5031687;28;20060;-70
2022/12/12 09:03:08;;;;;;;185.63;23.00;;;3.00;99.90;;;;;;5028636;28;20053;-70
2022/12/12 09:06:13;;;;;;;472.35;39.40;;;2.80;99.90;;;;;;5032119;28;20392;-70
2022/12/12 09:09:17;;;;;;;126.72;23.10;;;2.80;99.90;;;;;;5032494;28;20515;-70
2022/12/12 09:12:22;;;;;;;484.08;36.38;;;2.60;99.90;;;;;;5031590;28;20045;-70
2022/12/12 09:15:26;;;;;;;89.70;19.73;;;2.60;99.90;;;;;;5032120;28;20063;-71
2022/12/12 09:18:32;;;;;;;401.73;32.17;;;2.50;99.90;;;;;;5014239;28;20041;-70
2022/12/12 09:21:36;;;;;;;549.30;44.97;;;2.50;99.90;;;;;;5026109;28;20388;-70
2022/12/12 09:24:40;;;;;;;291.50;26.70;;;2.40;99.90;;;;;;5031024;28;20048;-71
2022/12/12 09:27:45;;;;;;;276.23;27.55;;;2.60;99.90;;;;;;5027146;28;20380;-70
2022/12/12 09:30:49;;;;;;;99.35;20.52;;;2.60;99.90;;;;;;5028562;28;20570;-70
2022/12/12 09:33:53;;;;;;;54.78;17.67;;;2.70;99.90;;;;;;5030655;28;20420;-70
2022/12/12 09:36:57;;;;;;;61.95;18.33;;;2.80;99.90;;;;;;5030715;28;20044;-71
2022/12/12 09:40:01;;;;;;;78.90;19.60;;;3.20;99.90;;;;;;5032276;28;20049;-71
2022/12/12 09:43:06;;;;;;;35.53;16.58;;;3.50;99.90;;;;;;5028546;28;20511;-70
2022/12/12 09:46:27;;;;;;;33.10;15.38;;;3.90;99.90;;;;;;5030855;28;20055;-70
2022/12/12 09:49:45;;;;;;;31.25;16.20;;;4.60;99.90;;;;;;5031602;28;20373;-71
2022/12/12 09:52:51;;;;;;;44.70;20.23;;;5.10;99.90;;;;;;5031530;28;20045;-71
2022/12/12 09:56:22;;;;;;;45.38;25.05;;;6.00;99.90;;;;;;5026049;28;20045;-71
2022/12/12 09:59:49;;;;;;;25.95;14.50;;;6.90;99.90;;;;;;5031234;28;20045;-71
2022/12/12 10:03:05;;;;;;;24.77;12.70;;;7.60;99.90;;;;;;5029675;28;20040;-71
2022/12/12 10:06:11;;;;;;;25.98;13.70;;;7.50;99.90;;;;;;5030810;28;20056;-71
2022/12/12 10:09:58;;;;;;;20.38;11.60;;;7.40;99.90;;;;;;5027744;28;20048;-71
2022/12/12 10:13:13;;;;;;;19.23;10.70;;;8.50;99.90;;;;;;5028357;28;20048;-72
2022/12/12 10:16:17;;;;;;;16.40;9.38;;;10.10;99.90;;;;;;5030235;28;20049;-72
2022/12/12 10:19:28;;;;;;;14.60;9.00;;;11.50;99.90;;;;;;5030517;28;20048;-72
2022/12/12 10:22:39;;;;;;;13.15;8.70;;;11.70;99.90;;;;;;5024508;28;20037;-72
2022/12/12 10:26:00;;;;;;;14.05;8.27;;;11.80;99.90;;;;;;5032847;28;20522;-72
2022/12/12 10:29:14;;;;;;;13.82;9.10;;;15.60;99.90;;;;;;5028369;28;20044;-72
2022/12/12 10:32:24;;;;;;;15.85;8.75;;;19.60;99.90;;;;;;5023408;28;20041;-72
2022/12/12 10:36:01;;;;;;;11.48;7.93;;;20.70;99.20;;;;;;5026289;28;20093;-73
2022/12/12 10:39:33;;;;;;;10.63;7.80;;;19.10;97.80;;;;;;5035063;28;20490;-72
2022/12/12 10:42:48;;;;;;;12.73;7.53;;;17.20;99.90;;;;;;5029796;28;20806;-73
2022/12/12 10:46:07;;;;;;;11.23;7.25;;;18.50;99.30;;;;;;5028826;28;20056;-72
2022/12/12 10:49:16;;;;;;;7.93;6.63;;;21.40;96.00;;;;;;5029678;28;20040;-72
2022/12/12 10:52:22;;;;;;;5.28;4.15;;;24.60;93.80;;;;;;5028634;28;20064;-72
2022/12/12 10:55:42;;;;;;;6.50;5.38;;;26.90;89.50;;;;;;5028428;28;20036;-72
2022/12/12 10:58:56;;;;;;;8.85;6.57;;;27.20;86.60;;;;;;5024459;28;20048;-72
2022/12/12 11:02:00;;;;;;;5.72;4.75;;;25.20;87.60;;;;;;5029764;28;20389;-72
2022/12/12 11:05:04;;;;;;;7.13;5.65;;;24.00;83.30;;;;;;5028205;28;20132;-72
2022/12/12 11:08:29;;;;;;;5.63;4.63;;;23.00;89.70;;;;;;5024866;28;20036;-73
2022/12/12 11:11:34;;;;;;;5.63;4.28;;;22.20;86.90;;;;;;5029265;28;20041;-72
2022/12/12 11:14:46;;;;;;;5.10;4.22;;;23.10;87.90;;;;;;5028047;28;20056;-72
2022/12/12 11:17:51;;;;;;;5.72;4.72;;;25.80;88.70;;;;;;5028948;28;20388;-73
2022/12/12 11:21:12;;;;;;;7.97;4.47;;;28.10;82.50;;;;;;5029700;28;20048;-72
2022/12/12 11:24:18;;;;;;;6.82;3.95;;;30.50;80.50;;;;;;5027017;28;20032;-73
2022/12/12 11:27:24;;;;;;;5.80;3.70;;;30.40;78.60;;;;;;5026409;28;20049;-73
2022/12/12 11:30:40;;;;;;;4.18;3.17;;;29.50;74.80;;;;;;5029039;28;20040;-72
2022/12/12 11:33:47;;;;;;;6.22;3.10;;;26.30;73.70;;;;;;5028874;28;20041;-73
2022/12/12 11:36:52;;;;;;;5.40;3.72;;;23.10;79.30;;;;;;5026704;28;20053;-73
2022/12/12 11:39:57;;;;;;;4.40;3.35;;;21.20;82.80;;;;;;5029758;28;20044;-72
2022/12/12 11:43:15;;;;;;;5.65;4.10;;;18.60;81.70;;;;;;5029208;28;20488;-72
2022/12/12 11:46:27;;;;;;;5.82;4.40;;;13.50;88.20;;;;;;5028286;28;20049;-72
2022/12/12 11:49:32;;;;;;;5.15;4.07;;;10.50;96.40;;;;;;5029058;28;20056;-72
2022/12/12 11:52:36;;;;;;;7.55;4.55;;;9.20;99.90;;;;;;5025702;28;20044;-71
2022/12/12 11:56:11;;;;;;;7.13;4.38;;;8.70;99.90;;;;;;5028492;28;20518;-72
2022/12/12 11:59:36;;;;;;;5.97;4.10;;;8.90;99.90;;;;;;5027963;28;20041;-71
2022/12/12 12:03:03;;;;;;;7.40;4.90;;;9.00;99.90;;;;;;5029502;28;20540;-71
2022/12/12 12:06:07;;;;;;;8.23;4.90;;;8.70;99.90;;;;;;5029027;28;20066;-71
2022/12/12 12:09:30;;;;;;;7.38;4.63;;;9.00;99.90;;;;;;5029051;28;20514;-71
2022/12/12 12:13:00;;;;;;;7.35;4.53;;;8.90;99.90;;;;;;5029730;28;20037;-71
2022/12/12 12:16:13;;;;;;;9.13;4.82;;;8.70;99.90;;;;;;5032621;28;20048;-71
2022/12/12 12:19:31;;;;;;;11.88;4.75;;;8.70;99.90;;;;;;5025923;28;20042;-71
2022/12/12 12:22:48;;;;;;;8.70;4.38;;;8.80;99.90;;;;;;5027679;28;20048;-71
2022/12/12 12:26:08;;;;;;;11.93;5.32;;;8.90;99.90;;;;;;5028602;28;20033;-71
2022/12/12 12:29:46;;;;;;;10.77;4.72;;;9.00;99.90;;;;;;5027179;28;20049;-71
2022/12/12 12:33:22;;;;;;;9.35;5.13;;;8.90;99.90;;;;;;5026834;28;20503;-71
2022/12/12 12:37:05;;;;;;;17.00;4.68;;;8.80;99.90;;;;;;5025494;28;20048;-72
2022/12/12 12:40:24;;;;;;;10.15;5.75;;;8.70;99.90;;;;;;5027979;28;20049;-71
2022/12/12 12:44:15;;;;;;;9.23;5.78;;;8.40;99.90;;;;;;5029843;28;20507;-71
2022/12/12 12:47:28;;;;;;;9.60;5.93;;;8.60;99.90;;;;;;5031917;28;20032;-71
2022/12/12 12:50:42;;;;;;;11.48;6.05;;;8.60;99.90;;;;;;5028194;28;20045;-71
2022/12/12 12:54:01;;;;;;;9.18;4.70;;;8.70;99.90;;;;;;5027423;28;20049;-71
2022/12/12 12:57:18;;;;;;;8.13;5.45;;;8.90;99.90;;;;;;5030670;28;20049;-71
2022/12/12 13:00:29;;;;;;;7.10;5.32;;;10.00;99.90;;;;;;5031268;28;20049;-71
2022/12/12 13:04:17;;;;;;;9.45;5.10;;;11.00;99.90;;;;;;5025579;28;20514;-71
2022/12/12 13:07:30;;;;;;;11.25;5.68;;;11.40;99.90;;;;;;5030320;28;20060;-71
2022/12/12 13:10:42;;;;;;;8.07;5.10;;;11.60;99.90;;;;;;5025575;28;20060;-71
2022/12/12 13:13:48;;;;;;;10.25;5.10;;;12.80;99.90;;;;;;5030998;28;20056;-71
2022/12/12 13:16:54;;;;;;;8.02;5.28;;;14.30;99.90;;;;;;5028687;28;20056;-72
2022/12/12 13:19:57;;;;;;;9.30;5.53;;;15.50;99.90;;;;;;5031933;28;20065;-72
2022/12/12 13:23:35;;;;;;;8.43;4.78;;;17.20;99.90;;;;;;5035617;28;20057;-72
2022/12/12 13:26:58;;;;;;;12.10;6.05;;;19.40;96.90;;;;;;5028192;28;20040;-72
2022/12/12 13:30:22;;;;;;;7.05;4.70;;;21.60;95.10;;;;;;5031426;28;20045;-72
2022/12/12 13:33:46;;;;;;;5.80;4.28;;;21.10;93.30;;;;;;5029695;28;20404;-72
2022/12/12 13:36:51;;;;;;;8.50;5.03;;;19.20;93.50;;;;;;5028187;28;20036;-72
2022/12/12 13:40:00;;;;;;;9.15;4.53;;;17.40;96.70;;;;;;5028978;28;20052;-72
2022/12/12 13:43:06;;;;;;;7.05;4.75;;;16.80;96.50;;;;;;5026463;28;20041;-73
2022/12/12 13:46:20;;;;;;;8.30;4.40;;;16.90;97.40;;;;;;5031126;28;20415;-72
2022/12/12 13:49:50;;;;;;;10.38;4.55;;;17.20;96.50;;;;;;5034387;28;20111;-72
2022/12/12 13:53:07;;;;;;;6.47;4.47;;;16.20;96.00;;;;;;5028518;28;20040;-72
2022/12/12 13:56:31;;;;;;;7.70;4.72;;;14.40;98.70;;;;;;5031807;28;20044;-72
2022/12/12 14:00:15;;;;;;;6.28;4.32;;;12.80;99.90;;;;;;5030872;28;20119;-72
2022/12/12 14:03:28;;;;;;;7.38;4.95;;;11.70;99.90;;;;;;5024724;28;20044;-72
2022/12/12 14:06:33;;;;;;;6.15;4.22;;;10.80;99.90;;;;;;5035987;28;20044;-72
2022/12/12 14:09:42;;;;;;;7.50;4.53;;;10.30;99.90;;;;;;5028614;28;20758;-72
2022/12/12 14:12:47;;;;;;;7.15;5.00;;;9.80;99.90;;;;;;5028517;28;20060;-73
2022/12/12 14:15:56;;;;;;;10.88;6.20;;;9.40;99.90;;;;;;5035690;28;20056;-71
2022/12/12 14:19:07;;;;;;;13.90;6.22;;;9.10;99.90;;;;;;5033651;28;20045;-72
2022/12/12 14:22:35;;;;;;;9.75;5.95;;;8.80;99.90;;;;;;5028362;28;20037;-71
2022/12/12 14:25:40;;;;;;;15.55;8.07;;;8.50;99.90;;;;;;5024343;28;20300;-72
2022/12/12 14:28:44;;;;;;;9.15;5.72;;;8.30;99.90;;;;;;5026420;28;20380;-71
2022/12/12 14:31:55;;;;;;;10.15;6.00;;;8.10;99.90;;;;;;5030932;28;20791;-71
2022/12/12 14:35:08;;;;;;;17.50;9.68;;;7.90;99.90;;;;;;5032833;28;20056;-71
2022/12/12 14:38:50;;;;;;;27.50;18.23;;;7.90;99.90;;;;;;5033386;28;20064;-71
2022/12/12 14:41:55;;;;;;;30.00;18.38;;;7.90;99.90;;;;;;5040794;28;20411;-71
2022/12/12 14:45:01;;;;;;;11.40;7.35;;;7.90;99.90;;;;;;5030610;28;20464;-71
2022/12/12 14:48:08;;;;;;;11.43;6.07;;;7.80;99.90;;;;;;5034935;28;20611;-71
2022/12/12 14:51:28;;;;;;;8.85;5.70;;;7.70;99.90;;;;;;5028565;28;20247;-71
2022/12/12 14:54:34;;;;;;;11.45;5.97;;;7.60;99.90;;;;;;5029393;28;20037;-71
2022/12/12 14:57:39;;;;;;;9.15;5.80;;;7.30;99.90;;;;;;5034822;28;20048;-71
2022/12/12 15:00:54;;;;;;;11.75;6.22;;;7.10;99.90;;;;;;5026247;28;20037;-71
2022/12/12 15:04:03;;;;;;;12.70;6.65;;;6.90;99.90;;;;;;5026498;28;20515;-72
2022/12/12 15:07:22;;;;;;;10.95;6.47;;;6.80;99.90;;;;;;5035745;28;20044;-71
2022/12/12 15:10:28;;;;;;;13.30;6.22;;;6.70;99.90;;;;;;5029502;28;20491;-71
2022/12/12 15:13:34;;;;;;;15.07;8.05;;;6.60;99.90;;;;;;5035373;28;20395;-71
2022/12/12 15:16:49;;;;;;;10.52;7.30;;;6.50;99.90;;;;;;5032027;28;20051;-71
2022/12/12 15:20:04;;;;;;;11.63;6.45;;;6.50;99.90;;;;;;5035864;28;20529;-71
2022/12/12 15:23:18;;;;;;;12.88;8.05;;;6.50;99.90;;;;;;5035121;28;20045;-71
2022/12/12 15:26:29;;;;;;;20.23;11.85;;;6.50;99.90;;;;;;5031338;28;20044;-71
2022/12/12 15:29:36;;;;;;;17.50;10.82;;;6.50;99.90;;;;;;5036931;28;20487;-71
2022/12/12 15:32:45;;;;;;;20.05;11.50;;;6.40;99.90;;;;;;5029887;28;20053;-70
2022/12/12 15:35:56;;;;;;;31.92;18.65;;;6.40;99.90;;;;;;5030988;28;20056;-71
2022/12/12 15:39:13;;;;;;;30.10;19.23;;;6.40;99.90;;;;;;5029632;28;20053;-70
2022/12/12 15:42:17;;;;;;;30.30;17.20;;;6.40;99.90;;;;;;5033319;28;20526;-71
2022/12/12 15:45:26;;;;;;;33.78;18.98;;;6.30;99.90;;;;;;5026044;28;20060;-71
2022/12/12 15:48:30;;;;;;;28.20;15.82;;;6.20;99.90;;;;;;5022630;28;20053;-71
2022/12/12 15:51:34;;;;;;;49.20;26.80;;;6.00;99.90;;;;;;5031614;28;20072;-71
2022/12/12 15:54:45;;;;;;;90.10;42.88;;;5.90;99.90;;;;;;5028310;28;20049;-71
2022/12/12 15:57:51;;;;;;;62.38;31.67;;;5.70;99.90;;;;;;5026579;28;20057;-71
2022/12/12 16:01:23;;;;;;;35.53;18.40;;;5.70;99.90;;;;;;5029748;28;20152;-71
2022/12/12 16:04:27;;;;;;;27.88;14.93;;;5.60;99.90;;;;;;5032391;28;20534;-71
2022/12/12 16:07:35;;;;;;;21.73;12.50;;;5.60;99.90;;;;;;5023352;28;20052;-71
2022/12/12 16:10:51;;;;;;;22.38;12.20;;;5.70;99.90;;;;;;5026151;28;20033;-71
2022/12/12 16:13:55;;;;;;;19.30;11.32;;;5.70;99.90;;;;;;5031806;28;20384;-71
2022/12/12 16:17:22;;;;;;;22.92;12.65;;;5.80;99.90;;;;;;5031601;28;20045;-71
2022/12/12 16:20:26;;;;;;;19.25;11.02;;;5.90;99.90;;;;;;5029010;28;20056;-71
2022/12/12 16:23:38;;;;;;;14.73;8.95;;;5.80;99.90;;;;;;5028987;28;20048;-71
2022/12/12 16:26:43;;;;;;;16.88;10.27;;;5.90;99.90;;;;;;5039944;28;20491;-71
2022/12/12 16:29:47;;;;;;;16.67;9.90;;;5.80;99.90;;;;;;5035688;28;20052;-71
2022/12/12 16:32:51;;;;;;;19.42;9.93;;;5.80;99.90;;;;;;5034047;28;20044;-71
2022/12/12 16:36:01;;;;;;;26.67;15.32;;;5.80;99.90;;;;;;5027373;28;20691;-71